Flight Briefing for CPX426

Departure Arrival
Tulsa International Airport (KTUL)
Click to view FAA NOTAMS
El Paso International Airport (KELP)
Click to view FAA NOTAMS
Departure Time Arrival Time
N/A N/A
Aircraft Distance
B757-200SF 585nm
Departure METAR Arrival METAR
KTUL 230553Z 16005KT 10SM BKN065 OVC200 24/22 A2985 RMK AO2 LTG DSNT NW-NE SLP099 60018 T02440222 10256 20211 403000144 51037 KELP 230551Z 26006KT 10SM CLR 24/M06 A2977 RMK AO2 SLP005 T02441056 10333 20244 51019
Suggested Route
TUL J78 IRW J74 TXO CME SAMMR3


View recent IFR Routes data
Notes



Charts and Procedures

Charts for KTUL
No chart available
Charts for KELP
No chart available

Windy.com Weather Map